sensor_id;sensor_type;location;lat;lon;timestamp;P1;durP1;ratioP1;P2;durP2;ratioP2
35917;SDS011;22011;59.912;30.300;2022-11-20T00:00:26;2.72;;;1.67;;
35917;SDS011;22011;59.912;30.300;2022-11-20T00:02:54;2.83;;;1.48;;
35917;SDS011;22011;59.912;30.300;2022-11-20T00:05:21;4.65;;;1.63;;
35917;SDS011;22011;59.912;30.300;2022-11-20T00:07:50;3.15;;;1.90;;
35917;SDS011;22011;59.912;30.300;2022-11-20T00:10:18;3.65;;;1.63;;
35917;SDS011;22011;59.912;30.300;2022-11-20T00:12:45;2.08;;;1.40;;
35917;SDS011;22011;59.912;30.300;2022-11-20T00:15:13;3.17;;;1.67;;
35917;SDS011;22011;59.912;30.300;2022-11-20T00:17:40;2.53;;;1.50;;
35917;SDS011;22011;59.912;30.300;2022-11-20T00:20:08;3.80;;;1.70;;
35917;SDS011;22011;59.912;30.300;2022-11-20T00:22:37;3.08;;;1.52;;
35917;SDS011;22011;59.912;30.300;2022-11-20T00:25:06;3.10;;;2.13;;
35917;SDS011;22011;59.912;30.300;2022-11-20T00:27:34;3.05;;;1.77;;
35917;SDS011;22011;59.912;30.300;2022-11-20T00:30:01;2.88;;;1.95;;
35917;SDS011;22011;59.912;30.300;2022-11-20T00:32:29;1.88;;;1.50;;
35917;SDS011;22011;59.912;30.300;2022-11-20T00:34:57;3.28;;;1.55;;
35917;SDS011;22011;59.912;30.300;2022-11-20T00:37:25;2.33;;;1.55;;
35917;SDS011;22011;59.912;30.300;2022-11-20T00:39:53;3.63;;;1.88;;
35917;SDS011;22011;59.912;30.300;2022-11-20T00:42:21;3.55;;;1.60;;
35917;SDS011;22011;59.912;30.300;2022-11-20T00:44:49;5.35;;;1.50;;
35917;SDS011;22011;59.912;30.300;2022-11-20T00:47:16;2.58;;;1.40;;
35917;SDS011;22011;59.912;30.300;2022-11-20T00:49:44;3.85;;;1.63;;
35917;SDS011;22011;59.912;30.300;2022-11-20T00:52:11;3.00;;;1.60;;
35917;SDS011;22011;59.912;30.300;2022-11-20T00:54:39;5.13;;;1.67;;
35917;SDS011;22011;59.912;30.300;2022-11-20T00:57:06;2.15;;;1.50;;
35917;SDS011;22011;59.912;30.300;2022-11-20T00:59:35;2.03;;;1.33;;
35917;SDS011;22011;59.912;30.300;2022-11-20T01:02:03;2.80;;;1.48;;
35917;SDS011;22011;59.912;30.300;2022-11-20T01:04:30;2.80;;;1.67;;
35917;SDS011;22011;59.912;30.300;2022-11-20T01:06:58;3.00;;;1.98;;
35917;SDS011;22011;59.912;30.300;2022-11-20T01:09:25;2.22;;;1.45;;
35917;SDS011;22011;59.912;30.300;2022-11-20T01:11:52;2.95;;;1.63;;
35917;SDS011;22011;59.912;30.300;2022-11-20T01:14:20;2.42;;;1.45;;
35917;SDS011;22011;59.912;30.300;2022-11-20T01:16:49;3.00;;;1.30;;
35917;SDS011;22011;59.912;30.300;2022-11-20T01:19:19;2.45;;;1.52;;
35917;SDS011;22011;59.912;30.300;2022-11-20T01:21:48;5.38;;;1.50;;
35917;SDS011;22011;59.912;30.300;2022-11-20T01:24:18;3.10;;;1.40;;
35917;SDS011;22011;59.912;30.300;2022-11-20T01:26:47;2.65;;;1.65;;
35917;SDS011;22011;59.912;30.300;2022-11-20T01:29:17;2.45;;;1.25;;
35917;SDS011;22011;59.912;30.300;2022-11-20T01:31:45;2.97;;;1.83;;
35917;SDS011;22011;59.912;30.300;2022-11-20T01:34:15;3.55;;;1.85;;
35917;SDS011;22011;59.912;30.300;2022-11-20T01:36:44;2.72;;;1.95;;
35917;SDS011;22011;59.912;30.300;2022-11-20T01:39:14;3.10;;;1.50;;
35917;SDS011;22011;59.912;30.300;2022-11-20T01:41:43;2.85;;;1.60;;
35917;SDS011;22011;59.912;30.300;2022-11-20T01:44:45;2.75;;;1.73;;
35917;SDS011;22011;59.912;30.300;2022-11-20T01:49:50;3.70;;;1.80;;
35917;SDS011;22011;59.912;30.300;2022-11-20T01:52:24;3.72;;;2.00;;
35917;SDS011;22011;59.912;30.300;2022-11-20T01:54:56;2.70;;;1.58;;
35917;SDS011;22011;59.912;30.300;2022-11-20T01:57:28;4.10;;;2.17;;
35917;SDS011;22011;59.912;30.300;2022-11-20T02:02:38;3.80;;;1.58;;
35917;SDS011;22011;59.912;30.300;2022-11-20T02:05:12;2.15;;;1.38;;
35917;SDS011;22011;59.912;30.300;2022-11-20T02:07:43;2.45;;;1.40;;
35917;SDS011;22011;59.912;30.300;2022-11-20T02:10:13;3.38;;;1.88;;
35917;SDS011;22011;59.912;30.300;2022-11-20T02:12:41;3.83;;;1.70;;
35917;SDS011;22011;59.912;30.300;2022-11-20T02:15:27;2.25;;;1.58;;
35917;SDS011;22011;59.912;30.300;2022-11-20T02:17:54;3.38;;;1.55;;
35917;SDS011;22011;59.912;30.300;2022-11-20T02:20:23;4.53;;;1.83;;
35917;SDS011;22011;59.912;30.300;2022-11-20T02:22:53;3.45;;;2.22;;
35917;SDS011;22011;59.912;30.300;2022-11-20T02:25:26;3.33;;;1.70;;
35917;SDS011;22011;59.912;30.300;2022-11-20T02:27:55;5.78;;;2.05;;
35917;SDS011;22011;59.912;30.300;2022-11-20T02:30:23;3.40;;;1.98;;
35917;SDS011;22011;59.912;30.300;2022-11-20T02:32:51;2.83;;;1.67;;
35917;SDS011;22011;59.912;30.300;2022-11-20T02:40:38;2.63;;;1.92;;
35917;SDS011;22011;59.912;30.300;2022-11-20T02:43:05;4.15;;;2.00;;
35917;SDS011;22011;59.912;30.300;2022-11-20T02:45:33;3.33;;;1.98;;
35917;SDS011;22011;59.912;30.300;2022-11-20T02:48:01;3.72;;;1.80;;
35917;SDS011;22011;59.912;30.300;2022-11-20T02:50:28;4.15;;;1.98;;
35917;SDS011;22011;59.912;30.300;2022-11-20T02:52:56;2.40;;;1.80;;
35917;SDS011;22011;59.912;30.300;2022-11-20T02:55:23;3.55;;;2.30;;
35917;SDS011;22011;59.912;30.300;2022-11-20T02:57:52;3.45;;;1.92;;
35917;SDS011;22011;59.912;30.300;2022-11-20T03:00:20;3.67;;;2.05;;
35917;SDS011;22011;59.912;30.300;2022-11-20T03:02:47;2.35;;;1.63;;
35917;SDS011;22011;59.912;30.300;2022-11-20T03:05:15;2.83;;;1.95;;
35917;SDS011;22011;59.912;30.300;2022-11-20T03:07:43;2.88;;;1.90;;
35917;SDS011;22011;59.912;30.300;2022-11-20T03:10:10;2.25;;;1.50;;
35917;SDS011;22011;59.912;30.300;2022-11-20T03:12:38;2.83;;;1.80;;
35917;SDS011;22011;59.912;30.300;2022-11-20T03:15:08;3.50;;;1.95;;
35917;SDS011;22011;59.912;30.300;2022-11-20T03:20:03;4.55;;;2.38;;
35917;SDS011;22011;59.912;30.300;2022-11-20T03:22:32;3.17;;;1.58;;
35917;SDS011;22011;59.912;30.300;2022-11-20T03:24:59;3.65;;;1.80;;
35917;SDS011;22011;59.912;30.300;2022-11-20T03:27:27;4.70;;;1.90;;
35917;SDS011;22011;59.912;30.300;2022-11-20T03:29:59;4.05;;;1.98;;
35917;SDS011;22011;59.912;30.300;2022-11-20T03:32:28;3.85;;;1.85;;
35917;SDS011;22011;59.912;30.300;2022-11-20T03:34:56;4.50;;;2.25;;
35917;SDS011;22011;59.912;30.300;2022-11-20T03:37:23;3.45;;;1.58;;
35917;SDS011;22011;59.912;30.300;2022-11-20T03:39:50;3.63;;;2.20;;
35917;SDS011;22011;59.912;30.300;2022-11-20T03:42:18;3.50;;;2.05;;
35917;SDS011;22011;59.912;30.300;2022-11-20T03:45:04;2.97;;;1.80;;
35917;SDS011;22011;59.912;30.300;2022-11-20T03:47:34;4.18;;;2.40;;
35917;SDS011;22011;59.912;30.300;2022-11-20T03:50:01;2.85;;;1.90;;
35917;SDS011;22011;59.912;30.300;2022-11-20T03:52:29;4.47;;;2.22;;
35917;SDS011;22011;59.912;30.300;2022-11-20T03:54:56;3.03;;;1.88;;
35917;SDS011;22011;59.912;30.300;2022-11-20T03:57:24;4.05;;;2.05;;
35917;SDS011;22011;59.912;30.300;2022-11-20T03:59:51;3.47;;;2.35;;
35917;SDS011;22011;59.912;30.300;2022-11-20T04:02:19;4.65;;;2.20;;
35917;SDS011;22011;59.912;30.300;2022-11-20T04:04:48;4.38;;;2.42;;
35917;SDS011;22011;59.912;30.300;2022-11-20T04:07:15;4.20;;;2.28;;
35917;SDS011;22011;59.912;30.300;2022-11-20T04:09:43;6.57;;;2.38;;
35917;SDS011;22011;59.912;30.300;2022-11-20T04:12:10;5.55;;;2.70;;
35917;SDS011;22011;59.912;30.300;2022-11-20T04:14:38;5.50;;;2.58;;
35917;SDS011;22011;59.912;30.300;2022-11-20T04:17:05;5.53;;;2.80;;
35917;SDS011;22011;59.912;30.300;2022-11-20T04:19:32;6.45;;;3.40;;
35917;SDS011;22011;59.912;30.300;2022-11-20T04:22:01;4.20;;;2.72;;
35917;SDS011;22011;59.912;30.300;2022-11-20T04:24:29;5.05;;;2.53;;
35917;SDS011;22011;59.912;30.300;2022-11-20T04:26:56;5.20;;;3.30;;
35917;SDS011;22011;59.912;30.300;2022-11-20T04:29:24;6.32;;;2.63;;
35917;SDS011;22011;59.912;30.300;2022-11-20T04:31:51;5.65;;;2.65;;
35917;SDS011;22011;59.912;30.300;2022-11-20T04:34:19;5.38;;;2.58;;
35917;SDS011;22011;59.912;30.300;2022-11-20T04:36:46;6.43;;;3.03;;
35917;SDS011;22011;59.912;30.300;2022-11-20T04:39:15;5.32;;;2.88;;
35917;SDS011;22011;59.912;30.300;2022-11-20T04:41:42;4.60;;;2.40;;
35917;SDS011;22011;59.912;30.300;2022-11-20T04:44:10;3.42;;;2.10;;
35917;SDS011;22011;59.912;30.300;2022-11-20T04:46:38;3.85;;;2.60;;
35917;SDS011;22011;59.912;30.300;2022-11-20T04:49:08;7.35;;;2.70;;
35917;SDS011;22011;59.912;30.300;2022-11-20T04:51:35;6.05;;;2.45;;
35917;SDS011;22011;59.912;30.300;2022-11-20T04:54:03;4.05;;;2.63;;
35917;SDS011;22011;59.912;30.300;2022-11-20T04:56:32;3.90;;;2.30;;
35917;SDS011;22011;59.912;30.300;2022-11-20T04:59:00;4.15;;;2.22;;
35917;SDS011;22011;59.912;30.300;2022-11-20T05:01:28;4.15;;;2.53;;
35917;SDS011;22011;59.912;30.300;2022-11-20T05:03:56;5.70;;;2.47;;
35917;SDS011;22011;59.912;30.300;2022-11-20T05:06:23;5.53;;;2.55;;
35917;SDS011;22011;59.912;30.300;2022-11-20T05:08:51;4.35;;;2.40;;
35917;SDS011;22011;59.912;30.300;2022-11-20T05:11:19;4.18;;;2.78;;
35917;SDS011;22011;59.912;30.300;2022-11-20T05:13:50;5.00;;;2.70;;
35917;SDS011;22011;59.912;30.300;2022-11-20T05:16:18;4.65;;;2.90;;
35917;SDS011;22011;59.912;30.300;2022-11-20T05:18:47;5.20;;;2.90;;
35917;SDS011;22011;59.912;30.300;2022-11-20T05:21:15;7.15;;;3.22;;
35917;SDS011;22011;59.912;30.300;2022-11-20T05:23:43;4.78;;;3.03;;
35917;SDS011;22011;59.912;30.300;2022-11-20T05:26:13;5.22;;;2.55;;
35917;SDS011;22011;59.912;30.300;2022-11-20T05:28:41;4.80;;;2.55;;
35917;SDS011;22011;59.912;30.300;2022-11-20T05:31:11;3.95;;;2.20;;
35917;SDS011;22011;59.912;30.300;2022-11-20T05:33:40;4.03;;;2.65;;
35917;SDS011;22011;59.912;30.300;2022-11-20T05:36:08;7.57;;;2.58;;
35917;SDS011;22011;59.912;30.300;2022-11-20T05:38:37;3.95;;;2.75;;
35917;SDS011;22011;59.912;30.300;2022-11-20T05:41:05;4.60;;;2.58;;
35917;SDS011;22011;59.912;30.300;2022-11-20T05:43:33;4.35;;;2.38;;
35917;SDS011;22011;59.912;30.300;2022-11-20T05:46:01;5.05;;;2.65;;
35917;SDS011;22011;59.912;30.300;2022-11-20T05:48:31;4.65;;;2.78;;
35917;SDS011;22011;59.912;30.300;2022-11-20T05:50:59;4.25;;;2.47;;
35917;SDS011;22011;59.912;30.300;2022-11-20T05:53:27;6.47;;;2.97;;
35917;SDS011;22011;59.912;30.300;2022-11-20T05:55:56;6.85;;;3.55;;
35917;SDS011;22011;59.912;30.300;2022-11-20T05:58:24;5.25;;;3.65;;
35917;SDS011;22011;59.912;30.300;2022-11-20T06:00:51;5.93;;;3.17;;
35917;SDS011;22011;59.912;30.300;2022-11-20T06:03:19;6.60;;;3.70;;
35917;SDS011;22011;59.912;30.300;2022-11-20T06:05:48;5.95;;;3.25;;
35917;SDS011;22011;59.912;30.300;2022-11-20T06:08:15;3.75;;;2.70;;
35917;SDS011;22011;59.912;30.300;2022-11-20T06:10:43;4.47;;;3.33;;
35917;SDS011;22011;59.912;30.300;2022-11-20T06:13:10;5.05;;;2.70;;
35917;SDS011;22011;59.912;30.300;2022-11-20T06:15:38;8.73;;;3.95;;
35917;SDS011;22011;59.912;30.300;2022-11-20T06:18:05;10.55;;;3.80;;
35917;SDS011;22011;59.912;30.300;2022-11-20T06:20:33;6.68;;;3.88;;
35917;SDS011;22011;59.912;30.300;2022-11-20T06:23:02;8.70;;;4.00;;
35917;SDS011;22011;59.912;30.300;2022-11-20T06:25:29;5.95;;;2.95;;
35917;SDS011;22011;59.912;30.300;2022-11-20T06:27:57;8.05;;;3.60;;
35917;SDS011;22011;59.912;30.300;2022-11-20T06:30:24;6.68;;;3.53;;
35917;SDS011;22011;59.912;30.300;2022-11-20T06:32:52;10.70;;;3.63;;
35917;SDS011;22011;59.912;30.300;2022-11-20T06:35:19;6.53;;;3.55;;
35917;SDS011;22011;59.912;30.300;2022-11-20T06:37:46;8.07;;;3.45;;
35917;SDS011;22011;59.912;30.300;2022-11-20T06:40:15;6.95;;;4.28;;
35917;SDS011;22011;59.912;30.300;2022-11-20T06:42:46;7.18;;;3.33;;
35917;SDS011;22011;59.912;30.300;2022-11-20T06:45:13;6.03;;;3.60;;
35917;SDS011;22011;59.912;30.300;2022-11-20T06:47:41;6.30;;;3.50;;
35917;SDS011;22011;59.912;30.300;2022-11-20T06:50:09;5.65;;;3.28;;
35917;SDS011;22011;59.912;30.300;2022-11-20T06:52:36;6.57;;;3.30;;
35917;SDS011;22011;59.912;30.300;2022-11-20T06:55:04;6.18;;;3.63;;
35917;SDS011;22011;59.912;30.300;2022-11-20T06:57:34;7.05;;;2.90;;
35917;SDS011;22011;59.912;30.300;2022-11-20T07:00:02;9.38;;;4.10;;
35917;SDS011;22011;59.912;30.300;2022-11-20T07:02:30;6.70;;;3.20;;
35917;SDS011;22011;59.912;30.300;2022-11-20T07:04:57;7.43;;;3.72;;
35917;SDS011;22011;59.912;30.300;2022-11-20T07:07:25;6.43;;;3.08;;
35917;SDS011;22011;59.912;30.300;2022-11-20T07:09:52;5.97;;;2.97;;
35917;SDS011;22011;59.912;30.300;2022-11-20T07:12:20;5.40;;;2.90;;
35917;SDS011;22011;59.912;30.300;2022-11-20T07:14:49;4.38;;;2.95;;
35917;SDS011;22011;59.912;30.300;2022-11-20T07:17:16;7.10;;;3.60;;
35917;SDS011;22011;59.912;30.300;2022-11-20T07:19:44;5.22;;;3.13;;
35917;SDS011;22011;59.912;30.300;2022-11-20T07:22:11;4.07;;;2.75;;
35917;SDS011;22011;59.912;30.300;2022-11-20T07:24:39;5.97;;;3.30;;
35917;SDS011;22011;59.912;30.300;2022-11-20T07:27:07;6.28;;;3.88;;
35917;SDS011;22011;59.912;30.300;2022-11-20T07:29:34;7.00;;;3.08;;
35917;SDS011;22011;59.912;30.300;2022-11-20T07:32:03;7.15;;;3.20;;
35917;SDS011;22011;59.912;30.300;2022-11-20T07:34:31;5.43;;;3.85;;
35917;SDS011;22011;59.912;30.300;2022-11-20T07:36:58;6.72;;;3.97;;
35917;SDS011;22011;59.912;30.300;2022-11-20T07:39:26;7.78;;;4.40;;
35917;SDS011;22011;59.912;30.300;2022-11-20T07:41:53;8.10;;;4.05;;
35917;SDS011;22011;59.912;30.300;2022-11-20T07:44:21;6.97;;;3.22;;
35917;SDS011;22011;59.912;30.300;2022-11-20T07:46:48;10.20;;;4.03;;
35917;SDS011;22011;59.912;30.300;2022-11-20T07:49:17;7.68;;;3.97;;
35917;SDS011;22011;59.912;30.300;2022-11-20T07:51:44;6.55;;;4.07;;
35917;SDS011;22011;59.912;30.300;2022-11-20T07:54:12;7.00;;;3.78;;
35917;SDS011;22011;59.912;30.300;2022-11-20T07:56:39;8.63;;;3.80;;
35917;SDS011;22011;59.912;30.300;2022-11-20T07:59:07;6.43;;;3.88;;
35917;SDS011;22011;59.912;30.300;2022-11-20T08:01:34;6.68;;;3.67;;
35917;SDS011;22011;59.912;30.300;2022-11-20T08:04:02;10.82;;;3.90;;
35917;SDS011;22011;59.912;30.300;2022-11-20T08:06:31;7.80;;;3.80;;
35917;SDS011;22011;59.912;30.300;2022-11-20T08:08:59;8.90;;;4.25;;
35917;SDS011;22011;59.912;30.300;2022-11-20T08:11:26;8.27;;;4.63;;
35917;SDS011;22011;59.912;30.300;2022-11-20T08:14:12;14.45;;;3.50;;
35917;SDS011;22011;59.912;30.300;2022-11-20T08:16:39;6.15;;;3.63;;
35917;SDS011;22011;59.912;30.300;2022-11-20T08:19:08;6.50;;;3.45;;
35917;SDS011;22011;59.912;30.300;2022-11-20T08:21:36;7.80;;;3.85;;
35917;SDS011;22011;59.912;30.300;2022-11-20T08:24:05;7.53;;;3.80;;
35917;SDS011;22011;59.912;30.300;2022-11-20T08:26:33;9.02;;;3.90;;
35917;SDS011;22011;59.912;30.300;2022-11-20T08:29:02;7.83;;;4.27;;
35917;SDS011;22011;59.912;30.300;2022-11-20T08:31:31;6.07;;;3.97;;
35917;SDS011;22011;59.912;30.300;2022-11-20T08:33:59;10.23;;;4.50;;
35917;SDS011;22011;59.912;30.300;2022-11-20T08:36:26;7.38;;;4.22;;
35917;SDS011;22011;59.912;30.300;2022-11-20T08:38:55;8.13;;;4.60;;
35917;SDS011;22011;59.912;30.300;2022-11-20T08:41:23;12.95;;;4.63;;
35917;SDS011;22011;59.912;30.300;2022-11-20T08:43:52;8.85;;;4.47;;
35917;SDS011;22011;59.912;30.300;2022-11-20T08:46:21;8.03;;;4.67;;
35917;SDS011;22011;59.912;30.300;2022-11-20T08:48:48;8.13;;;4.80;;
35917;SDS011;22011;59.912;30.300;2022-11-20T08:51:16;9.05;;;4.72;;
35917;SDS011;22011;59.912;30.300;2022-11-20T08:53:44;8.30;;;4.57;;
35917;SDS011;22011;59.912;30.300;2022-11-20T08:56:13;8.18;;;4.50;;
35917;SDS011;22011;59.912;30.300;2022-11-20T08:58:40;6.25;;;4.15;;
35917;SDS011;22011;59.912;30.300;2022-11-20T09:01:08;9.45;;;4.38;;
35917;SDS011;22011;59.912;30.300;2022-11-20T09:03:35;8.35;;;4.20;;
35917;SDS011;22011;59.912;30.300;2022-11-20T09:06:04;10.13;;;4.40;;
35917;SDS011;22011;59.912;30.300;2022-11-20T09:08:33;7.35;;;4.28;;
35917;SDS011;22011;59.912;30.300;2022-11-20T09:11:01;7.97;;;3.75;;
35917;SDS011;22011;59.912;30.300;2022-11-20T09:13:31;8.32;;;4.45;;
35917;SDS011;22011;59.912;30.300;2022-11-20T09:16:01;6.63;;;4.00;;
35917;SDS011;22011;59.912;30.300;2022-11-20T09:20:58;18.45;;;5.40;;
35917;SDS011;22011;59.912;30.300;2022-11-20T09:23:27;9.05;;;3.75;;
35917;SDS011;22011;59.912;30.300;2022-11-20T09:26:01;6.40;;;3.50;;
35917;SDS011;22011;59.912;30.300;2022-11-20T09:28:31;6.70;;;3.33;;
35917;SDS011;22011;59.912;30.300;2022-11-20T09:30:59;6.53;;;3.90;;
35917;SDS011;22011;59.912;30.300;2022-11-20T09:33:26;6.45;;;3.90;;
35917;SDS011;22011;59.912;30.300;2022-11-20T09:35:54;10.40;;;4.45;;
35917;SDS011;22011;59.912;30.300;2022-11-20T09:38:22;6.03;;;3.70;;
35917;SDS011;22011;59.912;30.300;2022-11-20T09:40:51;9.40;;;4.85;;
35917;SDS011;22011;59.912;30.300;2022-11-20T09:43:26;10.52;;;4.43;;
35917;SDS011;22011;59.912;30.300;2022-11-20T09:46:05;6.18;;;3.63;;
35917;SDS011;22011;59.912;30.300;2022-11-20T09:48:42;8.00;;;4.57;;
35917;SDS011;22011;59.912;30.300;2022-11-20T09:51:21;8.05;;;5.07;;
35917;SDS011;22011;59.912;30.300;2022-11-20T09:54:06;8.70;;;4.43;;
35917;SDS011;22011;59.912;30.300;2022-11-20T09:56:42;5.85;;;3.75;;
35917;SDS011;22011;59.912;30.300;2022-11-20T09:59:17;6.20;;;4.15;;
35917;SDS011;22011;59.912;30.300;2022-11-20T10:01:55;8.13;;;3.90;;
35917;SDS011;22011;59.912;30.300;2022-11-20T10:04:24;7.57;;;4.28;;
35917;SDS011;22011;59.912;30.300;2022-11-20T10:06:53;6.93;;;3.95;;
35917;SDS011;22011;59.912;30.300;2022-11-20T10:09:30;6.07;;;3.60;;
35917;SDS011;22011;59.912;30.300;2022-11-20T10:12:06;8.05;;;3.88;;
35917;SDS011;22011;59.912;30.300;2022-11-20T10:17:19;6.75;;;3.85;;
35917;SDS011;22011;59.912;30.300;2022-11-20T10:19:59;7.40;;;4.28;;
35917;SDS011;22011;59.912;30.300;2022-11-20T10:22:42;9.45;;;4.25;;
35917;SDS011;22011;59.912;30.300;2022-11-20T10:25:20;5.00;;;3.13;;
35917;SDS011;22011;59.912;30.300;2022-11-20T10:30:43;9.73;;;4.28;;
35917;SDS011;22011;59.912;30.300;2022-11-20T10:33:15;8.63;;;3.63;;
35917;SDS011;22011;59.912;30.300;2022-11-20T10:35:49;7.20;;;4.38;;
35917;SDS011;22011;59.912;30.300;2022-11-20T10:38:23;7.45;;;3.97;;
35917;SDS011;22011;59.912;30.300;2022-11-20T10:40:57;9.90;;;4.75;;
35917;SDS011;22011;59.912;30.300;2022-11-20T10:43:41;9.00;;;4.63;;
35917;SDS011;22011;59.912;30.300;2022-11-20T10:46:12;7.32;;;4.25;;
35917;SDS011;22011;59.912;30.300;2022-11-20T10:48:44;7.43;;;4.10;;
35917;SDS011;22011;59.912;30.300;2022-11-20T10:53:52;5.95;;;3.80;;
35917;SDS011;22011;59.912;30.300;2022-11-20T10:56:25;6.10;;;3.85;;
35917;SDS011;22011;59.912;30.300;2022-11-20T10:59:02;10.68;;;4.63;;
35917;SDS011;22011;59.912;30.300;2022-11-20T11:01:39;6.70;;;4.18;;
35917;SDS011;22011;59.912;30.300;2022-11-20T11:04:14;6.82;;;4.40;;
35917;SDS011;22011;59.912;30.300;2022-11-20T11:06:57;8.88;;;4.40;;
35917;SDS011;22011;59.912;30.300;2022-11-20T11:09:34;7.25;;;3.85;;
35917;SDS011;22011;59.912;30.300;2022-11-20T11:12:07;6.68;;;4.60;;
35917;SDS011;22011;59.912;30.300;2022-11-20T11:14:48;8.63;;;4.78;;
35917;SDS011;22011;59.912;30.300;2022-11-20T11:17:20;7.25;;;4.50;;
35917;SDS011;22011;59.912;30.300;2022-11-20T11:19:59;7.90;;;5.25;;
35917;SDS011;22011;59.912;30.300;2022-11-20T11:22:28;6.38;;;3.95;;
35917;SDS011;22011;59.912;30.300;2022-11-20T11:24:56;8.25;;;4.32;;
35917;SDS011;22011;59.912;30.300;2022-11-20T11:27:24;6.13;;;3.88;;
35917;SDS011;22011;59.912;30.300;2022-11-20T11:30:01;7.75;;;4.25;;
35917;SDS011;22011;59.912;30.300;2022-11-20T11:32:30;10.27;;;4.85;;
35917;SDS011;22011;59.912;30.300;2022-11-20T11:35:00;8.57;;;4.53;;
35917;SDS011;22011;59.912;30.300;2022-11-20T11:37:29;8.07;;;4.50;;
35917;SDS011;22011;59.912;30.300;2022-11-20T11:40:01;6.55;;;4.32;;
35917;SDS011;22011;59.912;30.300;2022-11-20T11:42:30;7.32;;;4.80;;
35917;SDS011;22011;59.912;30.300;2022-11-20T11:44:58;7.32;;;4.35;;
35917;SDS011;22011;59.912;30.300;2022-11-20T11:47:32;11.52;;;5.90;;
35917;SDS011;22011;59.912;30.300;2022-11-20T11:50:13;8.40;;;4.88;;
35917;SDS011;22011;59.912;30.300;2022-11-20T11:52:44;8.23;;;4.28;;
35917;SDS011;22011;59.912;30.300;2022-11-20T11:55:17;9.18;;;5.18;;
35917;SDS011;22011;59.912;30.300;2022-11-20T11:57:57;11.73;;;4.97;;
35917;SDS011;22011;59.912;30.300;2022-11-20T12:00:36;8.88;;;4.80;;
35917;SDS011;22011;59.912;30.300;2022-11-20T12:03:10;10.35;;;4.45;;
35917;SDS011;22011;59.912;30.300;2022-11-20T12:05:45;7.15;;;4.65;;
35917;SDS011;22011;59.912;30.300;2022-11-20T12:08:18;7.60;;;4.72;;
35917;SDS011;22011;59.912;30.300;2022-11-20T12:10:52;6.93;;;4.20;;
35917;SDS011;22011;59.912;30.300;2022-11-20T12:13:27;7.63;;;4.38;;
35917;SDS011;22011;59.912;30.300;2022-11-20T12:16:03;7.60;;;4.00;;
35917;SDS011;22011;59.912;30.300;2022-11-20T12:18:31;10.07;;;5.03;;
35917;SDS011;22011;59.912;30.300;2022-11-20T12:21:03;8.38;;;4.80;;
35917;SDS011;22011;59.912;30.300;2022-11-20T12:23:44;9.55;;;4.75;;
35917;SDS011;22011;59.912;30.300;2022-11-20T12:26:26;9.85;;;4.50;;
35917;SDS011;22011;59.912;30.300;2022-11-20T12:29:06;14.80;;;4.53;;
35917;SDS011;22011;59.912;30.300;2022-11-20T12:31:44;7.88;;;5.28;;
35917;SDS011;22011;59.912;30.300;2022-11-20T12:34:28;10.52;;;4.53;;
35917;SDS011;22011;59.912;30.300;2022-11-20T12:37:14;8.75;;;5.05;;
35917;SDS011;22011;59.912;30.300;2022-11-20T12:39:50;6.95;;;4.10;;
35917;SDS011;22011;59.912;30.300;2022-11-20T12:42:21;12.10;;;4.60;;
35917;SDS011;22011;59.912;30.300;2022-11-20T12:54:25;8.82;;;4.80;;
35917;SDS011;22011;59.912;30.300;2022-11-20T12:57:13;15.07;;;5.00;;
35917;SDS011;22011;59.912;30.300;2022-11-20T12:59:52;10.32;;;4.63;;
35917;SDS011;22011;59.912;30.300;2022-11-20T13:02:30;11.02;;;6.03;;
35917;SDS011;22011;59.912;30.300;2022-11-20T13:05:10;15.10;;;4.93;;
35917;SDS011;22011;59.912;30.300;2022-11-20T13:07:46;9.00;;;6.47;;
35917;SDS011;22011;59.912;30.300;2022-11-20T13:10:20;9.30;;;5.40;;
35917;SDS011;22011;59.912;30.300;2022-11-20T13:12:56;11.55;;;5.05;;
35917;SDS011;22011;59.912;30.300;2022-11-20T13:15:32;11.55;;;5.85;;
35917;SDS011;22011;59.912;30.300;2022-11-20T13:18:08;15.70;;;5.60;;
35917;SDS011;22011;59.912;30.300;2022-11-20T13:20:41;12.77;;;5.65;;
35917;SDS011;22011;59.912;30.300;2022-11-20T13:23:10;10.43;;;4.75;;
35917;SDS011;22011;59.912;30.300;2022-11-20T13:25:39;9.82;;;4.30;;
35917;SDS011;22011;59.912;30.300;2022-11-20T13:30:55;9.10;;;5.15;;
35917;SDS011;22011;59.912;30.300;2022-11-20T13:33:25;7.13;;;4.63;;
35917;SDS011;22011;59.912;30.300;2022-11-20T13:35:57;7.85;;;4.80;;
35917;SDS011;22011;59.912;30.300;2022-11-20T13:38:26;9.65;;;4.90;;
35917;SDS011;22011;59.912;30.300;2022-11-20T13:40:56;8.82;;;5.05;;
35917;SDS011;22011;59.912;30.300;2022-11-20T13:43:46;6.60;;;4.65;;
35917;SDS011;22011;59.912;30.300;2022-11-20T13:46:14;7.40;;;4.53;;
35917;SDS011;22011;59.912;30.300;2022-11-20T13:48:42;11.70;;;5.68;;
35917;SDS011;22011;59.912;30.300;2022-11-20T13:51:21;15.00;;;5.80;;
35917;SDS011;22011;59.912;30.300;2022-11-20T13:54:01;9.10;;;5.45;;
35917;SDS011;22011;59.912;30.300;2022-11-20T13:56:47;10.57;;;5.35;;
35917;SDS011;22011;59.912;30.300;2022-11-20T13:59:27;10.15;;;5.80;;
35917;SDS011;22011;59.912;30.300;2022-11-20T14:02:08;10.68;;;6.05;;
35917;SDS011;22011;59.912;30.300;2022-11-20T14:04:41;11.25;;;5.88;;
35917;SDS011;22011;59.912;30.300;2022-11-20T14:07:10;9.80;;;5.70;;
35917;SDS011;22011;59.912;30.300;2022-11-20T14:09:39;8.55;;;5.85;;
35917;SDS011;22011;59.912;30.300;2022-11-20T14:12:19;10.90;;;6.28;;
35917;SDS011;22011;59.912;30.300;2022-11-20T14:14:49;12.73;;;6.03;;
35917;SDS011;22011;59.912;30.300;2022-11-20T14:17:19;11.43;;;6.57;;
35917;SDS011;22011;59.912;30.300;2022-11-20T14:19:48;13.60;;;6.57;;
35917;SDS011;22011;59.912;30.300;2022-11-20T14:22:18;12.52;;;6.95;;
35917;SDS011;22011;59.912;30.300;2022-11-20T14:24:48;8.13;;;6.03;;
35917;SDS011;22011;59.912;30.300;2022-11-20T14:27:16;12.75;;;6.20;;
35917;SDS011;22011;59.912;30.300;2022-11-20T14:29:48;10.13;;;5.90;;
35917;SDS011;22011;59.912;30.300;2022-11-20T14:32:17;7.93;;;5.82;;
35917;SDS011;22011;59.912;30.300;2022-11-20T14:34:48;10.43;;;5.93;;
35917;SDS011;22011;59.912;30.300;2022-11-20T14:37:19;10.88;;;6.10;;
35917;SDS011;22011;59.912;30.300;2022-11-20T14:39:49;14.07;;;6.97;;
35917;SDS011;22011;59.912;30.300;2022-11-20T14:42:21;9.90;;;6.00;;
35917;SDS011;22011;59.912;30.300;2022-11-20T14:44:50;12.43;;;7.60;;
35917;SDS011;22011;59.912;30.300;2022-11-20T14:47:23;12.20;;;6.38;;
35917;SDS011;22011;59.912;30.300;2022-11-20T14:49:53;14.02;;;6.65;;
35917;SDS011;22011;59.912;30.300;2022-11-20T14:52:23;10.88;;;6.28;;
35917;SDS011;22011;59.912;30.300;2022-11-20T14:54:52;11.07;;;6.20;;
35917;SDS011;22011;59.912;30.300;2022-11-20T14:57:26;15.80;;;6.60;;
35917;SDS011;22011;59.912;30.300;2022-11-20T15:00:04;10.35;;;6.13;;
35917;SDS011;22011;59.912;30.300;2022-11-20T15:02:38;10.30;;;6.68;;
35917;SDS011;22011;59.912;30.300;2022-11-20T15:05:06;10.90;;;5.68;;
35917;SDS011;22011;59.912;30.300;2022-11-20T15:07:34;14.27;;;7.40;;
35917;SDS011;22011;59.912;30.300;2022-11-20T15:10:04;11.02;;;6.93;;
35917;SDS011;22011;59.912;30.300;2022-11-20T15:12:36;11.10;;;7.20;;
35917;SDS011;22011;59.912;30.300;2022-11-20T15:15:08;11.77;;;6.80;;
35917;SDS011;22011;59.912;30.300;2022-11-20T15:17:39;15.45;;;9.13;;
35917;SDS011;22011;59.912;30.300;2022-11-20T15:20:09;10.45;;;7.53;;
35917;SDS011;22011;59.912;30.300;2022-11-20T15:22:40;11.85;;;6.80;;
35917;SDS011;22011;59.912;30.300;2022-11-20T15:25:11;10.60;;;6.82;;
35917;SDS011;22011;59.912;30.300;2022-11-20T15:27:41;10.07;;;6.85;;